createdAt,value
2023-05-07T00:00:57.634Z,12.30
2023-05-07T00:03:24.642Z,12.30
2023-05-07T00:05:52.561Z,12.30
2023-05-07T00:08:19.415Z,12.30
2023-05-07T00:10:47.320Z,12.30
2023-05-07T00:13:14.018Z,12.30
2023-05-07T00:15:40.655Z,12.30
2023-05-07T00:18:07.334Z,12.30
2023-05-07T00:20:36.121Z,12.30
2023-05-07T00:23:02.997Z,12.30
2023-05-07T00:25:29.570Z,12.20
2023-05-07T00:27:56.217Z,12.20
2023-05-07T00:30:22.887Z,12.10
2023-05-07T00:32:50.058Z,12.10
2023-05-07T00:35:16.728Z,12.10
2023-05-07T00:37:43.469Z,12.20
2023-05-07T00:40:10.655Z,12.00
2023-05-07T00:42:37.771Z,12.00
2023-05-07T00:45:04.752Z,12.00
2023-05-07T00:47:32.077Z,11.90
2023-05-07T00:49:59.689Z,11.90
2023-05-07T00:52:27.000Z,11.80
2023-05-07T00:54:54.291Z,11.80
2023-05-07T00:57:22.489Z,11.80
2023-05-07T00:59:49.702Z,11.80
2023-05-07T01:02:16.363Z,11.70
2023-05-07T01:04:43.061Z,11.70
2023-05-07T01:07:10.643Z,11.70
2023-05-07T01:09:37.933Z,11.80
2023-05-07T01:12:05.365Z,11.80
2023-05-07T01:14:33.973Z,11.80
2023-05-07T01:17:01.029Z,11.80
2023-05-07T01:19:29.559Z,11.80
2023-05-07T01:22:04.336Z,11.80
2023-05-07T01:24:32.683Z,11.70
2023-05-07T01:26:59.258Z,11.70
2023-05-07T01:29:25.849Z,11.60
2023-05-07T01:31:53.717Z,11.60
2023-05-07T01:34:23.200Z,11.60
2023-05-07T01:36:50.112Z,11.60
2023-05-07T01:39:18.019Z,11.60
2023-05-07T01:41:45.245Z,11.60
2023-05-07T01:44:14.354Z,11.60
2023-05-07T01:46:41.481Z,11.60
2023-05-07T01:49:08.726Z,11.60
2023-05-07T01:51:36.311Z,11.80
2023-05-07T01:54:02.920Z,11.60
2023-05-07T01:56:29.559Z,11.70
2023-05-07T01:58:56.525Z,11.80
2023-05-07T02:01:23.155Z,11.90
2023-05-07T02:03:50.611Z,12.00
2023-05-07T02:06:17.316Z,12.00
2023-05-07T02:08:44.188Z,12.00
2023-05-07T02:11:10.986Z,12.00
2023-05-07T02:13:37.611Z,12.00
2023-05-07T02:16:04.591Z,12.00
2023-05-07T02:18:31.495Z,11.90
2023-05-07T02:20:58.168Z,11.90
2023-05-07T02:23:24.844Z,12.10
2023-05-07T02:25:51.906Z,11.70
2023-05-07T02:28:18.554Z,11.70
2023-05-07T02:30:45.185Z,11.60
2023-05-07T02:33:13.556Z,11.50
2023-05-07T02:35:40.341Z,11.50
2023-05-07T02:38:07.041Z,11.40
2023-05-07T02:40:34.652Z,11.30
2023-05-07T02:43:01.296Z,11.20
2023-05-07T02:45:27.834Z,11.20
2023-05-07T02:47:54.574Z,11.20
2023-05-07T02:50:21.293Z,11.20
2023-05-07T02:52:48.995Z,11.00
2023-05-07T02:55:15.742Z,11.30
2023-05-07T02:57:42.347Z,11.00
2023-05-07T03:00:17.833Z,11.00
2023-05-07T03:02:45.446Z,10.90
2023-05-07T03:05:12.986Z,10.90
2023-05-07T03:07:39.838Z,10.90
2023-05-07T03:10:07.269Z,10.80
2023-05-07T03:12:33.869Z,10.80
2023-05-07T03:15:00.446Z,10.80
2023-05-07T03:17:27.087Z,10.70
2023-05-07T03:19:53.767Z,10.70
2023-05-07T03:22:20.365Z,10.70
2023-05-07T03:24:46.970Z,10.70
2023-05-07T03:27:13.574Z,10.70
2023-05-07T03:29:40.371Z,11.00
2023-05-07T03:32:07.414Z,11.00
2023-05-07T03:34:34.029Z,10.60
2023-05-07T03:37:00.862Z,10.70
2023-05-07T03:39:27.495Z,10.60
2023-05-07T03:41:54.166Z,10.60
2023-05-07T03:44:20.997Z,10.60
2023-05-07T03:46:47.648Z,10.50
2023-05-07T03:49:14.534Z,10.50
2023-05-07T03:51:41.144Z,10.40
2023-05-07T03:54:08.182Z,10.50
2023-05-07T03:56:34.896Z,10.50
2023-05-07T03:59:02.583Z,10.60
2023-05-07T04:01:29.253Z,10.50
2023-05-07T04:03:56.413Z,10.60
2023-05-07T04:06:23.145Z,10.50
2023-05-07T04:08:49.755Z,10.50
2023-05-07T04:11:16.451Z,10.50
2023-05-07T04:13:43.088Z,10.70
2023-05-07T04:16:09.724Z,10.60
2023-05-07T04:18:36.374Z,10.70
2023-05-07T04:21:02.965Z,10.90
2023-05-07T04:23:29.532Z,10.80
2023-05-07T04:25:56.188Z,11.00
2023-05-07T04:28:22.820Z,10.80
2023-05-07T04:30:49.408Z,10.90
2023-05-07T04:33:19.285Z,10.90
2023-05-07T04:35:45.881Z,11.20
2023-05-07T04:38:12.499Z,11.20
2023-05-07T04:40:39.897Z,11.20
2023-05-07T04:43:06.695Z,11.50
2023-05-07T04:45:33.490Z,11.40
2023-05-07T04:48:00.319Z,11.40
2023-05-07T04:50:27.518Z,11.60
2023-05-07T04:52:54.245Z,11.50
2023-05-07T04:55:21.079Z,11.60
2023-05-07T04:57:48.113Z,11.60
2023-05-07T05:00:20.435Z,11.60
2023-05-07T05:02:47.223Z,11.60
2023-05-07T05:05:13.846Z,11.60
2023-05-07T05:07:40.758Z,11.60
2023-05-07T05:10:07.642Z,11.60
2023-05-07T05:12:34.265Z,11.60
2023-05-07T05:15:00.851Z,11.60
2023-05-07T05:17:27.502Z,11.70
2023-05-07T05:19:54.074Z,11.80
2023-05-07T05:22:22.020Z,11.80
2023-05-07T05:24:48.819Z,12.00
2023-05-07T05:27:15.462Z,12.10
2023-05-07T05:29:42.046Z,12.30
2023-05-07T05:32:08.680Z,12.50
2023-05-07T05:34:35.399Z,12.70
2023-05-07T05:37:02.452Z,13.00
2023-05-07T05:39:29.020Z,13.30
2023-05-07T12:45:51.689Z,19.90
2023-05-07T12:48:19.943Z,19.50
2023-05-07T12:50:49.720Z,19.20
2023-05-07T12:53:16.771Z,19.00
2023-05-07T12:55:57.763Z,18.70
2023-05-07T12:58:28.851Z,18.50
2023-05-07T13:01:00.435Z,18.20
2023-05-07T13:03:32.870Z,18.10
2023-05-07T13:06:02.528Z,17.80
2023-05-07T13:08:34.234Z,17.60
2023-05-07T13:11:04.524Z,17.50
2023-05-07T13:13:36.496Z,17.50
2023-05-07T13:16:04.884Z,17.40
2023-05-07T13:18:32.877Z,17.40
2023-05-07T13:21:00.311Z,17.40
2023-05-07T13:23:27.346Z,17.30
2023-05-07T13:25:54.945Z,17.00
2023-05-07T13:28:22.105Z,16.90
2023-05-07T13:30:49.163Z,16.70
2023-05-07T13:33:16.938Z,16.40
2023-05-07T13:35:43.543Z,16.20
2023-05-07T13:38:10.287Z,16.20
2023-05-07T13:40:36.909Z,16.10
2023-05-07T13:43:03.575Z,16.00
2023-05-07T13:45:30.783Z,15.90
2023-05-07T13:47:58.400Z,15.90
2023-05-07T13:50:25.434Z,15.90
2023-05-07T13:52:52.082Z,15.90
2023-05-07T13:55:19.810Z,16.00
2023-05-07T13:57:46.928Z,16.20
2023-05-07T14:00:15.390Z,16.10
2023-05-07T14:02:42.214Z,16.20
2023-05-07T14:05:10.662Z,16.30
2023-05-07T14:07:37.520Z,16.40
2023-05-07T14:10:04.892Z,16.40
2023-05-07T14:12:33.500Z,16.30
2023-05-07T14:15:00.641Z,16.30
2023-05-07T14:17:28.024Z,16.30
2023-05-07T14:19:55.398Z,16.40
2023-05-07T14:22:25.856Z,16.40
2023-05-07T14:25:05.414Z,16.50
2023-05-07T14:27:32.966Z,16.50
2023-05-07T14:29:59.615Z,16.50
2023-05-07T14:32:26.272Z,16.40
2023-05-07T14:34:52.920Z,16.40
2023-05-07T14:37:20.839Z,16.40
2023-05-07T14:39:49.815Z,16.40
2023-05-07T14:42:16.794Z,16.30
2023-05-07T14:44:43.451Z,16.20
2023-05-07T14:47:10.001Z,16.20
2023-05-07T14:49:36.657Z,16.20
2023-05-07T14:52:03.431Z,16.20
2023-05-07T14:54:30.176Z,16.20
2023-05-07T14:56:56.880Z,16.20
2023-05-07T14:59:25.820Z,16.30
2023-05-07T15:01:52.631Z,16.20
2023-05-07T15:04:19.766Z,16.40
2023-05-07T15:06:47.409Z,16.50
2023-05-07T15:09:14.407Z,16.50
2023-05-07T15:11:40.966Z,16.60
2023-05-07T15:14:07.567Z,16.70
2023-05-07T15:16:34.996Z,16.60
2023-05-07T15:19:01.681Z,16.60
2023-05-07T15:21:28.412Z,16.60
2023-05-07T15:23:55.131Z,16.50
2023-05-07T15:26:21.934Z,16.50
2023-05-07T15:28:48.539Z,16.60
2023-05-07T15:31:17.411Z,16.60
2023-05-07T15:33:44.152Z,16.70
2023-05-07T15:36:11.056Z,16.70
2023-05-07T15:38:37.642Z,16.70
2023-05-07T15:41:04.618Z,16.60
2023-05-07T15:43:31.417Z,16.60
2023-05-07T15:45:58.207Z,16.60
2023-05-07T15:48:25.206Z,16.60
2023-05-07T15:50:51.811Z,16.60
2023-05-07T15:53:18.414Z,16.70
2023-05-07T15:55:45.840Z,16.60
2023-05-07T15:58:13.759Z,16.60
2023-05-07T16:00:41.656Z,16.60
2023-05-07T16:03:08.756Z,16.70
2023-05-07T16:05:35.591Z,16.60
2023-05-07T16:08:02.246Z,16.60
2023-05-07T16:10:28.892Z,16.60
2023-05-07T16:12:55.674Z,16.40
2023-05-07T16:15:22.377Z,16.50
2023-05-07T16:17:49.753Z,16.50
2023-05-07T16:20:19.816Z,16.40
2023-05-07T16:22:46.763Z,16.40
2023-05-07T16:25:14.777Z,16.30
2023-05-07T16:27:41.523Z,16.30
2023-05-07T16:30:08.802Z,16.30
2023-05-07T16:32:36.252Z,16.40
2023-05-07T16:35:03.476Z,16.40
2023-05-07T16:37:30.190Z,16.40
2023-05-07T16:39:56.817Z,16.20
2023-05-07T16:42:23.399Z,16.20
2023-05-07T16:44:50.011Z,16.10
2023-05-07T16:47:16.615Z,16.10
2023-05-07T16:49:43.206Z,16.10
2023-05-07T16:52:09.761Z,16.10
2023-05-07T16:54:37.192Z,16.10
2023-05-07T16:57:03.885Z,16.10
2023-05-07T16:59:33.216Z,16.10
2023-05-07T17:01:59.891Z,16.10
2023-05-07T17:04:26.918Z,16.20
2023-05-07T17:06:53.672Z,16.30
2023-05-07T17:09:20.365Z,16.20
2023-05-07T17:11:46.949Z,16.40
2023-05-07T17:14:13.536Z,16.50
2023-05-07T17:16:40.417Z,16.60
2023-05-07T17:19:07.138Z,16.60
2023-05-07T17:21:33.763Z,16.60
2023-05-07T17:24:00.400Z,16.60
2023-05-07T17:26:27.853Z,16.60
2023-05-07T17:28:54.542Z,16.50
2023-05-07T17:31:21.207Z,16.50
2023-05-07T17:33:47.807Z,16.40
2023-05-07T17:36:14.802Z,16.30
2023-05-07T17:38:41.549Z,16.30
2023-05-07T17:41:08.131Z,16.20
2023-05-07T17:43:34.719Z,16.20
2023-05-07T17:46:01.332Z,16.10
2023-05-07T17:48:27.924Z,16.00
2023-05-07T17:51:00.244Z,16.00
2023-05-07T17:53:28.207Z,15.90
2023-05-07T17:55:54.800Z,15.80
2023-05-07T17:58:22.516Z,15.80
2023-05-07T18:00:49.086Z,15.80
2023-05-07T18:03:15.819Z,15.70
2023-05-07T18:05:42.618Z,15.70
2023-05-07T18:08:10.162Z,15.60
2023-05-07T18:10:38.004Z,15.70
2023-05-07T18:13:04.645Z,15.50
2023-05-07T18:15:31.355Z,15.50
2023-05-07T18:17:57.980Z,15.40
2023-05-07T18:20:24.609Z,15.30
2023-05-07T18:22:51.397Z,15.30
2023-05-07T18:25:18.219Z,15.30
2023-05-07T18:27:44.859Z,15.30
2023-05-07T18:30:12.262Z,15.20
2023-05-07T18:32:39.188Z,15.20
2023-05-07T18:35:06.261Z,15.20
2023-05-07T18:37:33.656Z,15.10
2023-05-07T18:40:04.014Z,15.10
2023-05-07T18:42:31.609Z,15.00
2023-05-07T18:44:59.444Z,14.90
2023-05-07T18:47:26.137Z,14.80
2023-05-07T18:49:52.858Z,14.90
2023-05-07T18:52:22.016Z,14.80
2023-05-07T18:54:48.673Z,14.80
2023-05-07T18:57:16.606Z,14.70
2023-05-07T18:59:44.166Z,14.60
2023-05-07T19:02:13.825Z,14.60
2023-05-07T19:04:40.975Z,14.50
2023-05-07T19:07:07.758Z,14.50
2023-05-07T19:09:34.414Z,14.50
2023-05-07T19:12:02.014Z,14.80
2023-05-07T19:14:28.543Z,14.40
2023-05-07T19:16:55.879Z,14.40
2023-05-07T19:19:22.716Z,14.30
2023-05-07T19:21:49.371Z,14.30
2023-05-07T19:24:16.744Z,14.30
2023-05-07T19:26:43.415Z,14.30
2023-05-07T19:29:17.651Z,14.40
2023-05-07T19:31:45.857Z,14.30
2023-05-07T19:34:13.915Z,14.30
2023-05-07T19:36:40.909Z,14.30
2023-05-07T19:39:07.520Z,14.40
2023-05-07T19:41:34.266Z,14.30
2023-05-07T19:44:00.894Z,14.20
2023-05-07T19:46:27.600Z,14.20
2023-05-07T19:48:54.327Z,14.30
2023-05-07T19:51:21.016Z,14.30
2023-05-07T19:53:47.819Z,14.30
2023-05-07T19:56:15.728Z,14.30
2023-05-07T19:58:42.395Z,14.30
2023-05-07T20:01:09.708Z,14.30
2023-05-07T20:03:36.522Z,14.40
2023-05-07T20:06:03.453Z,14.30
2023-05-07T20:08:30.142Z,14.30
2023-05-07T20:10:58.271Z,14.30
2023-05-07T20:13:26.772Z,14.50
2023-05-07T20:16:00.460Z,14.50
2023-05-07T20:18:28.659Z,14.50
2023-05-07T20:20:55.509Z,14.50
2023-05-07T20:23:22.313Z,14.50
2023-05-07T20:25:50.192Z,14.50
2023-05-07T20:28:17.001Z,14.50
2023-05-07T20:30:43.601Z,14.50
2023-05-07T20:33:10.519Z,14.50
2023-05-07T20:35:37.636Z,14.50
2023-05-07T20:38:04.255Z,14.50
2023-05-07T20:40:33.701Z,14.50
2023-05-07T20:43:01.181Z,14.40
2023-05-07T20:45:27.786Z,14.40
2023-05-07T20:47:54.569Z,14.40
2023-05-07T20:50:26.914Z,14.40
2023-05-07T20:52:53.784Z,14.40
2023-05-07T20:55:20.492Z,14.30
2023-05-07T20:57:47.234Z,14.30
2023-05-07T21:00:15.752Z,14.90
2023-05-07T21:02:43.549Z,14.40
2023-05-07T21:05:10.171Z,14.30
2023-05-07T21:07:37.000Z,14.30
2023-05-07T21:10:03.783Z,14.30
2023-05-07T21:12:30.384Z,14.40
2023-05-07T21:14:57.471Z,14.30
2023-05-07T21:17:24.180Z,14.30
2023-05-07T21:19:52.134Z,14.30
2023-05-07T21:22:18.719Z,14.30
2023-05-07T21:24:45.352Z,14.30
2023-05-07T21:27:11.961Z,14.30
2023-05-07T21:29:38.622Z,14.30
2023-05-07T21:32:05.587Z,14.30
2023-05-07T21:34:33.247Z,14.20
2023-05-07T21:36:59.901Z,14.30
2023-05-07T21:39:26.545Z,14.30
2023-05-07T21:41:53.474Z,14.30
2023-05-07T21:44:20.075Z,14.30
2023-05-07T21:46:46.689Z,14.20
2023-05-07T21:49:13.322Z,14.20
2023-05-07T21:51:40.185Z,14.30
2023-05-07T21:54:06.889Z,14.30
2023-05-07T21:56:33.679Z,14.30
2023-05-07T21:59:00.334Z,14.20
2023-05-07T22:01:26.990Z,14.30
2023-05-07T22:03:54.301Z,14.30
2023-05-07T22:06:22.418Z,14.30
2023-05-07T22:08:50.096Z,14.30
2023-05-07T22:11:17.057Z,14.30
2023-05-07T22:13:43.781Z,14.30
2023-05-07T22:16:10.537Z,14.20
2023-05-07T22:18:37.300Z,14.30
2023-05-07T22:21:04.600Z,14.20
2023-05-07T22:23:31.292Z,14.40
2023-05-07T22:25:58.323Z,14.30
2023-05-07T22:28:24.957Z,14.40
2023-05-07T22:30:51.615Z,14.30
2023-05-07T22:33:18.198Z,14.30
2023-05-07T22:35:44.754Z,14.30
2023-05-07T22:38:11.396Z,14.50
2023-05-07T22:40:37.981Z,14.30
2023-05-07T22:43:04.548Z,14.30
2023-05-07T22:45:31.232Z,14.30
2023-05-07T22:47:57.948Z,14.30
2023-05-07T22:50:24.557Z,14.30
2023-05-07T22:52:51.139Z,14.30
2023-05-07T22:55:17.899Z,14.30
2023-05-07T22:57:44.504Z,14.40
2023-05-07T23:00:12.214Z,14.30
2023-05-07T23:02:39.190Z,14.30
2023-05-07T23:05:06.107Z,14.30
2023-05-07T23:07:32.701Z,14.40
2023-05-07T23:09:59.279Z,14.30
2023-05-07T23:12:25.888Z,14.30
2023-05-07T23:14:52.488Z,14.30
2023-05-07T23:17:19.118Z,14.30
2023-05-07T23:19:45.877Z,14.30
2023-05-07T23:22:12.640Z,14.20
2023-05-07T23:24:39.459Z,14.30
2023-05-07T23:27:07.226Z,14.30
2023-05-07T23:29:34.381Z,14.20
2023-05-07T23:32:01.773Z,14.20
2023-05-07T23:34:28.410Z,14.20
2023-05-07T23:36:55.069Z,14.20
2023-05-07T23:39:21.703Z,14.20
2023-05-07T23:41:48.331Z,14.30
2023-05-07T23:44:16.509Z,14.30
2023-05-07T23:46:44.534Z,14.20
2023-05-07T23:49:11.497Z,14.20
2023-05-07T23:51:38.231Z,14.20
2023-05-07T23:54:05.114Z,14.20
2023-05-07T23:56:31.825Z,14.50
2023-05-07T23:58:58.488Z,14.20
